createdAt,value
2017-12-02T00:00:55.156Z,32.75
2017-12-02T00:03:22.673Z,30.40
2017-12-02T00:05:50.199Z,34.70
2017-12-02T00:08:17.787Z,30.45
2017-12-02T00:10:45.317Z,31.52
2017-12-02T00:13:12.823Z,32.05
2017-12-02T00:15:40.621Z,31.45
2017-12-02T00:18:08.176Z,32.88
2017-12-02T00:20:35.696Z,30.88
2017-12-02T00:23:03.270Z,30.10
2017-12-02T00:25:30.795Z,31.65
2017-12-02T00:27:58.330Z,31.30
2017-12-02T00:30:25.903Z,32.80
2017-12-02T00:32:53.449Z,31.05
2017-12-02T00:35:21.009Z,30.42
2017-12-02T00:37:48.567Z,34.67
2017-12-02T00:40:16.082Z,30.02
2017-12-02T00:42:43.607Z,32.28
2017-12-02T00:45:11.294Z,31.90
2017-12-02T00:47:38.814Z,32.42
2017-12-02T00:50:06.363Z,31.60
2017-12-02T00:52:33.924Z,32.00
2017-12-02T00:55:01.480Z,30.15
2017-12-02T00:57:29.003Z,33.40
2017-12-02T00:59:56.908Z,33.95
2017-12-02T01:02:24.466Z,33.63
2017-12-02T01:04:52.078Z,34.95
2017-12-02T01:07:19.636Z,31.55
2017-12-02T01:09:47.154Z,32.00
2017-12-02T01:12:14.703Z,32.38
2017-12-02T01:14:42.287Z,32.38
2017-12-02T01:17:09.798Z,34.03
2017-12-02T01:19:37.323Z,36.33
2017-12-02T01:22:04.942Z,30.73
2017-12-02T01:24:32.498Z,31.87
2017-12-02T01:27:00.058Z,32.00
2017-12-02T01:29:27.718Z,35.92
2017-12-02T01:31:55.231Z,32.78
2017-12-02T01:34:22.763Z,33.10
2017-12-02T01:36:50.478Z,33.15
2017-12-02T01:39:18.366Z,32.78
2017-12-02T01:41:45.906Z,33.33
2017-12-02T01:44:13.586Z,33.95
2017-12-02T01:46:41.100Z,32.10
2017-12-02T01:49:08.618Z,35.00
2017-12-02T01:51:36.468Z,32.45
2017-12-02T01:54:03.983Z,36.92
2017-12-02T01:56:31.505Z,35.50
2017-12-02T01:58:59.081Z,31.92
2017-12-02T02:01:26.603Z,33.75
2017-12-02T02:03:54.160Z,34.33
2017-12-02T02:06:21.851Z,33.70
2017-12-02T02:08:49.370Z,33.10
2017-12-02T02:11:16.894Z,34.60
2017-12-02T02:13:44.603Z,33.03
2017-12-02T02:16:12.162Z,33.22
2017-12-02T02:18:39.675Z,33.58
2017-12-02T02:21:07.484Z,33.90
2017-12-02T02:23:35.044Z,37.15
2017-12-02T02:26:02.605Z,34.17
2017-12-02T02:28:30.351Z,35.65
2017-12-02T02:30:57.876Z,31.85
2017-12-02T02:33:25.406Z,32.97
2017-12-02T02:35:52.961Z,35.10
2017-12-02T02:38:20.483Z,34.28
2017-12-02T02:40:48.010Z,35.03
2017-12-02T02:43:15.730Z,31.00
2017-12-02T02:45:43.254Z,34.33
2017-12-02T02:48:10.778Z,35.17
2017-12-02T02:50:38.327Z,33.05
2017-12-02T02:53:05.850Z,34.72
2017-12-02T02:55:33.370Z,33.95
2017-12-02T02:58:00.976Z,34.33
2017-12-02T03:00:28.534Z,37.83
2017-12-02T03:02:56.195Z,33.72
2017-12-02T03:05:23.804Z,37.85
2017-12-02T03:07:51.331Z,35.47
2017-12-02T03:10:18.874Z,37.83
2017-12-02T03:12:46.682Z,39.33
2017-12-02T03:15:14.199Z,41.78
2017-12-02T03:17:41.758Z,38.22
2017-12-02T03:20:09.704Z,42.47
2017-12-02T03:22:37.283Z,35.25
2017-12-02T03:25:04.843Z,34.45
2017-12-02T03:27:32.790Z,34.28
2017-12-02T03:30:00.307Z,35.22
2017-12-02T03:32:27.822Z,31.65
2017-12-02T03:34:55.790Z,34.35
2017-12-02T03:37:23.356Z,34.60
2017-12-02T03:39:50.914Z,34.60
2017-12-02T03:42:18.554Z,39.13
2017-12-02T03:44:46.133Z,31.75
2017-12-02T03:47:13.799Z,34.88
2017-12-02T03:49:41.661Z,35.83
2017-12-02T03:52:09.259Z,28.75
2017-12-02T03:54:36.803Z,31.48
2017-12-02T03:57:04.606Z,29.70
2017-12-02T03:59:32.205Z,30.55
2017-12-02T04:01:59.717Z,34.60
2017-12-02T04:04:27.631Z,34.75
2017-12-02T04:06:55.195Z,35.65
2017-12-02T04:09:22.750Z,36.38
2017-12-02T04:11:50.513Z,32.40
2017-12-02T04:14:18.071Z,35.78
2017-12-02T04:16:45.590Z,32.25
2017-12-02T04:19:13.191Z,33.22
2017-12-02T04:21:40.749Z,36.67
2017-12-02T04:24:08.274Z,31.05
2017-12-02T04:26:35.868Z,31.12
2017-12-02T04:29:03.385Z,31.73
2017-12-02T04:31:30.903Z,32.92
2017-12-02T04:33:58.500Z,29.52
2017-12-02T04:36:26.027Z,28.40
2017-12-02T04:38:53.560Z,28.58
2017-12-02T04:41:21.298Z,29.30
2017-12-02T04:43:49.292Z,29.25
2017-12-02T04:46:16.807Z,32.38
2017-12-02T04:48:44.355Z,32.50
2017-12-02T04:51:11.866Z,31.60
2017-12-02T04:53:39.374Z,35.65
2017-12-02T04:56:06.922Z,36.33
2017-12-02T04:58:34.443Z,33.83
2017-12-02T05:01:02.330Z,35.97
2017-12-02T05:03:29.896Z,36.17
2017-12-02T05:05:57.419Z,31.05
2017-12-02T05:08:24.990Z,34.33
2017-12-02T05:10:52.546Z,32.88
2017-12-02T05:13:20.106Z,35.30
2017-12-02T05:15:48.074Z,32.55
2017-12-02T05:18:15.818Z,36.22
2017-12-02T05:20:43.342Z,37.72
2017-12-02T05:23:10.869Z,38.00
2017-12-02T05:25:38.618Z,40.30
2017-12-02T05:28:06.136Z,34.03
2017-12-02T05:30:33.736Z,38.50
2017-12-02T05:33:01.601Z,36.25
2017-12-02T05:35:29.161Z,33.13
2017-12-02T05:37:56.720Z,34.20
2017-12-02T05:40:24.291Z,32.80
2017-12-02T05:42:51.814Z,31.58
2017-12-02T05:45:19.334Z,33.85
2017-12-02T05:47:46.905Z,32.90
2017-12-02T05:50:14.422Z,32.00
2017-12-02T05:52:41.980Z,31.37
2017-12-02T05:55:09.556Z,30.10
2017-12-02T05:57:37.078Z,32.63
2017-12-02T06:00:04.677Z,36.05
2017-12-02T06:02:32.229Z,33.55
2017-12-02T06:04:59.768Z,31.10
2017-12-02T06:07:27.326Z,33.60
2017-12-02T06:09:55.070Z,31.40
2017-12-02T06:12:22.599Z,33.45
2017-12-02T06:14:50.986Z,33.88
2017-12-02T06:17:18.705Z,36.42
2017-12-02T06:19:46.249Z,34.28
2017-12-02T06:22:13.770Z,38.08
2017-12-02T06:24:41.319Z,36.83
2017-12-02T06:27:08.852Z,36.38
2017-12-02T06:29:36.373Z,34.22
2017-12-02T06:32:04.146Z,38.83
2017-12-02T06:34:31.666Z,39.15
2017-12-02T06:36:59.199Z,40.58
2017-12-02T06:39:27.050Z,36.83
2017-12-02T06:41:54.571Z,29.63
2017-12-02T06:44:22.197Z,31.08
2017-12-02T06:46:49.777Z,29.08
2017-12-02T06:49:17.294Z,34.30
2017-12-02T06:51:44.826Z,34.35
2017-12-02T06:54:12.521Z,28.92
2017-12-02T06:56:40.037Z,29.27
2017-12-02T06:59:07.550Z,32.75
2017-12-02T07:01:35.097Z,28.30
2017-12-02T07:04:02.621Z,28.98
2017-12-02T07:06:30.142Z,34.05
2017-12-02T07:08:58.027Z,32.35
2017-12-02T07:11:25.559Z,30.05
2017-12-02T07:13:53.086Z,29.98
2017-12-02T07:16:20.742Z,28.83
2017-12-02T07:18:48.326Z,28.38
2017-12-02T07:21:15.840Z,32.08
2017-12-02T07:23:43.426Z,30.62
2017-12-02T07:26:10.942Z,37.10
2017-12-02T07:28:38.466Z,36.05
2017-12-02T07:31:06.113Z,38.47
2017-12-02T07:33:33.621Z,33.50
2017-12-02T07:36:01.147Z,38.03
2017-12-02T07:38:28.783Z,33.25
2017-12-02T07:40:56.300Z,29.33
2017-12-02T07:43:23.815Z,32.38
2017-12-02T07:45:51.519Z,29.65
2017-12-02T07:48:19.046Z,31.67
2017-12-02T07:50:46.566Z,31.10
2017-12-02T07:53:14.716Z,30.50
2017-12-02T07:55:42.252Z,28.85
2017-12-02T07:58:10.763Z,28.73
2017-12-02T08:00:38.428Z,24.10
2017-12-02T08:03:05.942Z,25.27
2017-12-02T08:05:33.500Z,25.45
2017-12-02T08:08:01.194Z,26.12
2017-12-02T08:10:28.718Z,25.67
2017-12-02T08:12:56.233Z,22.65
2017-12-02T08:15:23.938Z,27.33
2017-12-02T08:17:51.465Z,30.35
2017-12-02T08:20:19.002Z,34.85
2017-12-02T08:22:46.578Z,48.25
2017-12-02T08:25:14.150Z,35.47
2017-12-02T08:27:41.661Z,31.98
2017-12-02T08:30:09.554Z,30.15
2017-12-02T08:32:37.102Z,26.15
2017-12-02T08:35:04.688Z,29.33
2017-12-02T08:37:32.301Z,25.42
2017-12-02T08:39:59.882Z,24.60
2017-12-02T08:42:27.402Z,25.30
2017-12-02T08:44:55.309Z,25.37
2017-12-02T08:47:22.830Z,25.95
2017-12-02T08:49:50.355Z,28.33
2017-12-02T08:52:17.903Z,26.05
2017-12-02T08:54:45.475Z,26.17
2017-12-02T08:57:13.101Z,24.67
2017-12-02T08:59:40.732Z,23.42
2017-12-02T09:02:08.423Z,21.90
2017-12-02T09:04:36.067Z,23.73
2017-12-02T09:07:03.965Z,22.95
2017-12-02T09:09:31.570Z,22.37
2017-12-02T09:11:59.108Z,23.50
2017-12-02T09:14:26.939Z,21.30
2017-12-02T09:16:54.619Z,21.12
2017-12-02T09:19:22.364Z,21.42
2017-12-02T09:21:50.331Z,18.62
2017-12-02T09:24:17.905Z,20.40
2017-12-02T09:26:45.449Z,20.55
2017-12-02T09:29:13.018Z,20.33
2017-12-02T09:31:40.773Z,22.92
2017-12-02T09:34:08.327Z,22.77
2017-12-02T09:36:35.894Z,20.40
2017-12-02T09:39:03.468Z,20.27
2017-12-02T09:41:31.015Z,20.88
2017-12-02T09:43:58.899Z,24.98
2017-12-02T09:46:26.765Z,25.90
2017-12-02T09:48:54.350Z,19.15
2017-12-02T09:51:22.290Z,21.65
2017-12-02T09:53:49.828Z,18.98
2017-12-02T09:56:17.381Z,20.85
2017-12-02T09:58:44.991Z,21.60
2017-12-02T10:01:12.712Z,23.25
2017-12-02T10:03:40.496Z,21.80
2017-12-02T10:06:08.359Z,20.77
2017-12-02T10:08:35.894Z,24.52
2017-12-02T10:11:03.481Z,23.33
2017-12-02T10:13:31.082Z,25.20
2017-12-02T10:15:58.598Z,23.10
2017-12-02T10:18:26.154Z,25.77
2017-12-02T10:20:53.727Z,26.15
2017-12-02T10:23:21.362Z,24.58
2017-12-02T10:25:48.915Z,23.90
2017-12-02T10:28:16.662Z,25.45
2017-12-02T10:30:44.198Z,25.77
2017-12-02T10:33:11.902Z,24.90
2017-12-02T10:35:39.786Z,23.73
2017-12-02T10:38:07.637Z,24.37
2017-12-02T10:40:35.241Z,23.62
2017-12-02T10:43:03.133Z,21.48
2017-12-02T10:45:30.866Z,24.25
2017-12-02T10:47:58.736Z,24.17
2017-12-02T10:50:26.898Z,22.17
2017-12-02T10:52:55.624Z,21.95
2017-12-02T10:55:23.517Z,22.25
2017-12-02T10:57:51.997Z,21.37
2017-12-02T11:00:19.994Z,19.70
2017-12-02T11:02:47.882Z,20.77
2017-12-02T11:05:16.006Z,22.80
2017-12-02T11:07:43.623Z,20.80
2017-12-02T11:10:11.204Z,22.37
2017-12-02T11:12:39.292Z,19.62
2017-12-02T11:15:06.857Z,26.95
2017-12-02T11:17:34.638Z,20.75
2017-12-02T11:20:03.518Z,19.90
2017-12-02T11:22:31.135Z,24.52
2017-12-02T11:24:58.753Z,19.42
2017-12-02T11:27:26.495Z,24.35
2017-12-02T11:29:54.055Z,21.75
2017-12-02T11:32:21.573Z,22.37
2017-12-02T11:34:49.489Z,23.90
2017-12-02T11:37:17.043Z,21.20
2017-12-02T11:39:44.604Z,23.27
2017-12-02T11:42:12.350Z,21.67
2017-12-02T11:44:39.871Z,20.33
2017-12-02T11:47:07.583Z,22.17
2017-12-02T11:49:35.141Z,24.87
2017-12-02T11:52:02.704Z,24.02
2017-12-02T11:54:30.260Z,17.83
2017-12-02T11:56:57.954Z,19.92
2017-12-02T11:59:25.481Z,23.45
2017-12-02T12:01:53.039Z,25.23
2017-12-02T12:04:20.804Z,23.52
2017-12-02T12:06:48.365Z,23.85
2017-12-02T12:09:15.925Z,22.20
2017-12-02T12:11:43.622Z,24.15
2017-12-02T12:14:11.190Z,23.65
2017-12-02T12:16:38.713Z,24.08
2017-12-02T12:19:06.294Z,23.45
2017-12-02T12:21:34.082Z,23.27
2017-12-02T12:24:01.688Z,20.62
2017-12-02T12:26:29.348Z,22.60
2017-12-02T12:28:56.866Z,19.90
2017-12-02T12:31:24.741Z,23.60
2017-12-02T12:33:52.333Z,21.67
2017-12-02T12:36:19.860Z,23.38
2017-12-02T12:38:47.378Z,24.15
2017-12-02T12:41:15.094Z,24.20
2017-12-02T12:43:42.614Z,23.30
2017-12-02T12:46:10.128Z,21.37
2017-12-02T12:48:37.993Z,24.02
2017-12-02T12:51:05.552Z,23.62
2017-12-02T12:53:33.116Z,23.92
2017-12-02T12:56:00.866Z,19.75
2017-12-02T12:58:28.378Z,21.27
2017-12-02T13:00:56.108Z,20.98
2017-12-02T13:03:23.838Z,20.08
2017-12-02T13:05:51.357Z,19.90
2017-12-02T13:08:18.926Z,19.80
2017-12-02T13:10:46.539Z,22.85
2017-12-02T13:13:14.097Z,20.55
2017-12-02T13:15:41.622Z,20.45
2017-12-02T13:18:09.214Z,20.40
2017-12-02T13:20:36.978Z,19.98
2017-12-02T13:23:04.510Z,21.00
2017-12-02T13:25:32.609Z,18.10
2017-12-02T13:28:00.157Z,20.15
2017-12-02T13:30:27.674Z,20.85
2017-12-02T13:32:55.225Z,22.83
2017-12-02T13:35:23.050Z,21.67
2017-12-02T13:37:50.574Z,18.70
2017-12-02T13:40:18.460Z,19.27
2017-12-02T13:42:46.118Z,17.80
2017-12-02T13:45:13.692Z,17.92
2017-12-02T13:47:41.386Z,18.25
2017-12-02T13:50:08.920Z,19.23
2017-12-02T13:52:36.884Z,20.25
2017-12-02T13:55:04.547Z,21.10
2017-12-02T13:57:32.160Z,20.20
2017-12-02T13:59:59.662Z,19.60
2017-12-02T14:02:27.474Z,23.02
2017-12-02T14:04:55.036Z,21.60
2017-12-02T14:07:22.550Z,22.10
2017-12-02T14:09:50.244Z,21.70
2017-12-02T14:12:18.687Z,21.58
2017-12-02T14:14:46.245Z,22.95
2017-12-02T14:17:14.985Z,24.42
2017-12-02T14:19:43.825Z,21.87
2017-12-02T14:22:11.382Z,24.95
2017-12-02T14:24:39.759Z,23.87
2017-12-02T14:27:07.311Z,24.00
2017-12-02T14:29:34.979Z,21.65
2017-12-02T14:32:03.579Z,23.83
2017-12-02T14:34:31.123Z,24.37
2017-12-02T14:36:58.783Z,20.20
2017-12-02T14:39:26.447Z,22.30
2017-12-02T14:41:54.955Z,24.15
2017-12-02T14:44:22.466Z,24.45
2017-12-02T14:46:50.232Z,23.05
2017-12-02T14:49:17.759Z,25.17
2017-12-02T14:51:45.984Z,24.83
2017-12-02T14:54:14.089Z,24.00
2017-12-02T14:56:42.252Z,23.17
2017-12-02T14:59:09.817Z,28.08
2017-12-02T15:01:37.715Z,29.20
2017-12-02T15:04:05.345Z,25.20
2017-12-02T15:06:32.871Z,24.83
2017-12-02T15:09:01.590Z,25.58
2017-12-02T15:11:29.129Z,23.92
2017-12-02T15:13:56.982Z,22.98
2017-12-02T15:16:25.694Z,24.92
2017-12-02T15:18:53.534Z,26.20
2017-12-02T15:21:21.299Z,25.20
2017-12-02T15:23:49.369Z,28.12
2017-12-02T15:26:17.030Z,30.25
2017-12-02T15:28:45.726Z,28.15
2017-12-02T15:31:13.971Z,25.25
2017-12-02T15:33:41.801Z,24.33
2017-12-02T15:36:11.894Z,27.13
2017-12-02T15:38:41.203Z,23.85
2017-12-02T15:41:09.249Z,26.10
2017-12-02T15:43:37.981Z,24.48
2017-12-02T15:46:07.454Z,25.17
2017-12-02T15:48:36.022Z,24.33
2017-12-02T15:51:04.603Z,26.90
2017-12-02T15:53:32.572Z,24.25
2017-12-02T15:56:00.337Z,27.20
2017-12-02T15:58:28.099Z,26.10
2017-12-02T16:00:58.033Z,26.00
2017-12-02T16:03:25.858Z,25.00
2017-12-02T16:05:53.562Z,25.52
2017-12-02T16:08:21.236Z,25.62
2017-12-02T16:10:48.971Z,25.33
2017-12-02T16:13:17.461Z,25.58
2017-12-02T16:15:45.018Z,24.83
2017-12-02T16:18:12.615Z,23.00
2017-12-02T16:20:40.162Z,26.67
2017-12-02T16:23:07.742Z,26.77
2017-12-02T16:25:35.347Z,24.30
2017-12-02T16:28:03.009Z,28.70
2017-12-02T16:30:30.976Z,24.73
2017-12-02T16:32:58.486Z,24.65
2017-12-02T16:35:26.015Z,24.17
2017-12-02T16:37:53.565Z,24.25
2017-12-02T16:40:21.112Z,24.40
2017-12-02T16:42:48.669Z,24.00
2017-12-02T16:45:16.238Z,26.30
2017-12-02T16:47:43.782Z,25.33
2017-12-02T16:50:11.398Z,27.80
2017-12-02T16:52:39.213Z,27.58
2017-12-02T16:55:06.739Z,25.05
2017-12-02T16:57:34.282Z,25.80
2017-12-02T17:00:02.073Z,27.60
2017-12-02T17:02:29.635Z,25.25
2017-12-02T17:04:57.154Z,27.48
2017-12-02T17:07:24.775Z,23.95
2017-12-02T17:09:52.336Z,27.00
2017-12-02T17:12:19.898Z,24.52
2017-12-02T17:14:47.633Z,24.98
2017-12-02T17:17:15.214Z,25.45
2017-12-02T17:19:42.725Z,24.63
2017-12-02T17:22:10.411Z,24.02
2017-12-02T17:24:37.963Z,23.73
2017-12-02T17:27:05.548Z,24.60
2017-12-02T17:29:33.294Z,22.13
2017-12-02T17:32:00.810Z,22.10
2017-12-02T17:34:28.351Z,25.10
2017-12-02T17:36:56.010Z,23.60
2017-12-02T17:39:23.555Z,23.02
2017-12-02T17:41:51.112Z,20.15
2017-12-02T17:44:18.858Z,21.42
2017-12-02T17:46:46.435Z,18.20
2017-12-02T17:49:13.995Z,23.70
2017-12-02T17:51:41.942Z,21.98
2017-12-02T17:54:09.461Z,22.92
2017-12-02T17:56:37.036Z,23.00
2017-12-02T17:59:04.646Z,22.13
2017-12-02T18:01:32.226Z,20.95
2017-12-02T18:04:00.016Z,21.58
2017-12-02T18:06:27.951Z,22.62
2017-12-02T18:08:55.552Z,26.27
2017-12-02T18:11:23.150Z,24.75
2017-12-02T18:13:50.834Z,23.52
2017-12-02T18:16:18.477Z,21.42
2017-12-02T18:18:46.105Z,23.33
2017-12-02T18:21:13.696Z,21.55
2017-12-02T18:23:41.268Z,21.35
2017-12-02T18:26:09.651Z,21.60
2017-12-02T18:28:37.818Z,22.30
2017-12-02T18:31:05.374Z,20.95
2017-12-02T18:33:33.131Z,20.10
2017-12-02T18:36:01.425Z,22.52
2017-12-02T18:38:29.162Z,21.73
2017-12-02T18:40:56.877Z,21.20
2017-12-02T18:43:24.759Z,20.92
2017-12-02T18:45:52.752Z,22.62
2017-12-02T18:48:20.319Z,22.77
2017-12-02T18:50:48.400Z,23.85
2017-12-02T18:53:18.034Z,21.83
2017-12-02T18:55:45.570Z,22.48
2017-12-02T18:58:13.537Z,22.42
2017-12-02T19:00:41.912Z,23.83
2017-12-02T19:03:09.614Z,21.50
2017-12-02T19:05:37.815Z,23.48
2017-12-02T19:08:05.353Z,23.92
2017-12-02T19:10:32.910Z,24.40
2017-12-02T19:13:01.636Z,25.23
2017-12-02T19:15:29.390Z,26.33
2017-12-02T19:17:58.306Z,25.90
2017-12-02T19:20:27.607Z,26.60
2017-12-02T19:22:55.389Z,27.67
2017-12-02T19:25:23.647Z,27.00
2017-12-02T19:27:51.238Z,25.55
2017-12-02T19:30:18.970Z,27.30
2017-12-02T19:32:46.765Z,25.45
2017-12-02T19:35:14.599Z,27.80
2017-12-02T19:37:43.185Z,27.25
2017-12-02T19:40:11.743Z,27.87
2017-12-02T19:42:39.644Z,26.52
2017-12-02T19:45:07.499Z,30.25
2017-12-02T19:47:36.084Z,27.90
2017-12-02T19:50:04.703Z,29.92
2017-12-02T19:52:34.581Z,29.83
2017-12-02T19:55:02.196Z,28.98
2017-12-02T19:57:30.575Z,28.98
2017-12-02T19:59:58.240Z,28.25
2017-12-02T20:02:26.273Z,28.95
2017-12-02T20:04:54.442Z,27.58
2017-12-02T20:07:22.901Z,32.90
2017-12-02T20:09:51.488Z,30.83
2017-12-02T20:12:20.699Z,27.92
2017-12-02T20:14:48.624Z,27.42
2017-12-02T20:17:16.517Z,27.37
2017-12-02T20:19:45.310Z,28.95
2017-12-02T20:22:13.076Z,29.75
2017-12-02T20:24:42.121Z,29.05
2017-12-02T20:27:10.444Z,29.63
2017-12-02T20:29:38.311Z,30.90
2017-12-02T20:32:06.028Z,27.08
2017-12-02T20:34:34.178Z,30.65
2017-12-02T20:37:01.910Z,28.77
2017-12-02T20:39:29.572Z,29.37
2017-12-02T20:41:57.659Z,28.30
2017-12-02T20:44:25.718Z,27.85
2017-12-02T20:46:53.589Z,26.42
2017-12-02T20:49:21.671Z,28.65
2017-12-02T20:51:49.516Z,27.27
2017-12-02T20:54:18.370Z,25.62
2017-12-02T20:56:46.274Z,27.70
2017-12-02T20:59:14.847Z,29.37
2017-12-02T21:01:42.638Z,25.08
2017-12-02T21:04:10.654Z,28.15
2017-12-02T21:06:38.456Z,28.30
2017-12-02T21:09:06.300Z,29.58
2017-12-02T21:11:34.780Z,31.33
2017-12-02T21:14:02.822Z,28.45
2017-12-02T21:16:30.639Z,29.35
2017-12-02T21:18:58.317Z,28.83
2017-12-02T21:21:26.085Z,28.12
2017-12-02T21:23:53.930Z,27.87
2017-12-02T21:26:21.898Z,30.67
2017-12-02T21:28:49.572Z,32.83
2017-12-02T21:31:17.307Z,30.67
2017-12-02T21:33:46.126Z,30.55
2017-12-02T21:36:14.839Z,30.70
2017-12-02T21:38:42.460Z,30.45
2017-12-02T21:41:10.098Z,28.55
2017-12-02T21:43:37.884Z,30.45
2017-12-02T21:46:05.653Z,29.35
2017-12-02T21:48:33.498Z,31.62
2017-12-02T21:51:01.074Z,30.17
2017-12-02T21:53:28.838Z,28.92
2017-12-02T21:55:56.501Z,31.60
2017-12-02T21:58:24.468Z,30.00
2017-12-02T22:00:52.027Z,31.30
2017-12-02T22:03:19.985Z,28.23
2017-12-02T22:05:47.623Z,30.88
2017-12-02T22:08:15.320Z,28.33
2017-12-02T22:10:43.087Z,31.75
2017-12-02T22:13:10.862Z,29.45
2017-12-02T22:15:38.620Z,32.33
2017-12-02T22:18:06.376Z,31.35
2017-12-02T22:20:34.549Z,29.50
2017-12-02T22:23:02.117Z,31.37
2017-12-02T22:25:29.871Z,29.30
2017-12-02T22:27:57.652Z,29.05
2017-12-02T22:30:25.502Z,28.98
2017-12-02T22:32:53.730Z,31.12
2017-12-02T22:35:21.295Z,29.33
2017-12-02T22:37:50.227Z,31.12
2017-12-02T22:40:18.016Z,32.03
2017-12-02T22:42:45.980Z,32.60
2017-12-02T22:45:13.929Z,30.55
2017-12-02T22:47:41.684Z,34.17
2017-12-02T22:50:09.473Z,33.08
2017-12-02T22:52:38.664Z,33.30
2017-12-02T22:55:07.449Z,31.45
2017-12-02T22:57:36.129Z,30.15
2017-12-02T23:00:03.718Z,30.60
2017-12-02T23:02:31.624Z,32.45
2017-12-02T23:04:59.438Z,33.65
2017-12-02T23:07:27.734Z,33.90
2017-12-02T23:09:55.483Z,32.30
2017-12-02T23:12:23.058Z,31.70
2017-12-02T23:14:50.592Z,30.70
2017-12-02T23:17:18.427Z,31.83
2017-12-02T23:19:46.942Z,30.05
2017-12-02T23:22:14.572Z,32.60
2017-12-02T23:24:43.359Z,33.00
2017-12-02T23:27:11.868Z,29.90
2017-12-02T23:29:40.446Z,26.60
2017-12-02T23:32:08.049Z,28.05
2017-12-02T23:34:35.730Z,31.02
2017-12-02T23:37:03.343Z,34.33
2017-12-02T23:39:31.271Z,32.15
2017-12-02T23:41:58.782Z,31.75
2017-12-02T23:44:26.333Z,29.58
2017-12-02T23:46:54.171Z,29.75
2017-12-02T23:49:21.765Z,32.75
2017-12-02T23:51:49.301Z,28.45
2017-12-02T23:54:17.054Z,29.58
2017-12-02T23:56:44.613Z,32.50
2017-12-02T23:59:12.194Z,30.05
